createdAt,value
2023-02-14T00:02:43.933Z,36.10
2023-02-14T00:05:45.369Z,33.20
2023-02-14T00:08:46.807Z,37.38
2023-02-14T00:11:48.309Z,34.78
2023-02-14T00:14:49.707Z,37.30
2023-02-14T00:17:52.874Z,36.33
2023-02-14T00:21:00.134Z,40.20
2023-02-14T00:24:03.196Z,40.15
2023-02-14T00:27:04.592Z,34.75
2023-02-14T00:30:08.382Z,37.95
2023-02-14T00:33:09.842Z,36.55
2023-02-14T00:36:12.859Z,35.67
2023-02-14T00:39:15.868Z,36.47
2023-02-14T00:42:17.348Z,37.13
2023-02-14T00:45:20.588Z,42.08
2023-02-14T00:48:22.045Z,40.83
2023-02-14T00:51:24.005Z,36.78
2023-02-14T00:54:25.484Z,38.53
2023-02-14T00:57:27.027Z,38.95
2023-02-14T01:00:28.558Z,40.70
2023-02-14T01:03:30.454Z,37.47
2023-02-14T01:06:31.914Z,36.97
2023-02-14T01:09:33.434Z,35.65
2023-02-14T01:12:36.767Z,38.78
2023-02-14T01:15:40.925Z,40.65
2023-02-14T01:18:43.161Z,35.53
2023-02-14T01:21:44.709Z,39.42
2023-02-14T01:24:46.194Z,41.58
2023-02-14T01:27:47.569Z,38.90
2023-02-14T01:30:49.022Z,40.90
2023-02-14T01:33:50.828Z,36.53
2023-02-14T01:36:52.334Z,39.15
2023-02-14T01:39:53.783Z,40.10
2023-02-14T01:42:55.176Z,39.25
2023-02-14T01:45:58.107Z,40.22
2023-02-14T01:49:10.399Z,39.10
2023-02-14T01:52:19.647Z,39.58
2023-02-14T01:55:28.312Z,37.78
2023-02-14T01:58:33.091Z,41.55
2023-02-14T02:01:35.030Z,39.72
2023-02-14T02:04:41.712Z,40.08
2023-02-14T02:07:43.246Z,41.20
2023-02-14T02:10:44.688Z,39.17
2023-02-14T02:13:46.109Z,40.35
2023-02-14T02:17:06.325Z,37.40
2023-02-14T02:20:34.236Z,40.20
2023-02-14T02:24:13.537Z,38.72
2023-02-14T02:27:36.266Z,42.95
2023-02-14T02:30:55.293Z,39.25
2023-02-14T02:34:28.220Z,41.88
2023-02-14T02:38:06.750Z,41.05
2023-02-14T02:41:22.910Z,38.33
2023-02-14T02:44:48.074Z,38.75
2023-02-14T02:48:12.906Z,43.53
2023-02-14T02:51:24.213Z,41.45
2023-02-14T02:54:35.002Z,43.42
2023-02-14T02:57:40.629Z,40.60
2023-02-14T03:00:42.993Z,41.38
2023-02-14T03:03:48.673Z,39.90
2023-02-14T03:06:51.315Z,38.03
2023-02-14T03:09:55.916Z,41.00
2023-02-14T03:13:25.349Z,43.22
2023-02-14T03:16:41.384Z,42.92
2023-02-14T03:19:45.753Z,41.55
2023-02-14T03:23:06.155Z,38.63
2023-02-14T03:26:18.509Z,36.50
2023-02-14T03:29:35.773Z,36.47
2023-02-14T03:32:51.999Z,47.08
2023-02-14T03:35:53.388Z,39.85
2023-02-14T03:39:02.410Z,40.47
2023-02-14T03:42:10.736Z,47.17
2023-02-14T03:45:18.336Z,38.78
2023-02-14T03:48:23.054Z,44.03
2023-02-14T03:51:27.234Z,41.58
2023-02-14T03:54:31.535Z,44.20
2023-02-14T03:57:46.416Z,40.80
2023-02-14T04:00:52.252Z,42.08
2023-02-14T04:03:57.042Z,44.03
2023-02-14T04:06:58.744Z,43.22
2023-02-14T04:10:00.237Z,45.33
2023-02-14T04:13:01.739Z,50.22
2023-02-14T04:16:03.937Z,47.25
2023-02-14T04:19:05.410Z,45.30
2023-02-14T04:22:06.847Z,47.47
2023-02-14T04:25:08.319Z,49.17
2023-02-14T04:28:09.782Z,44.13
2023-02-14T04:31:11.351Z,46.70
2023-02-14T04:34:13.102Z,46.55
2023-02-14T04:37:17.824Z,45.65
2023-02-14T04:40:19.446Z,46.03
2023-02-14T04:43:20.870Z,46.72
2023-02-14T04:46:22.468Z,48.42
2023-02-14T04:49:23.861Z,44.50
2023-02-14T04:52:25.376Z,45.25
2023-02-14T04:55:27.082Z,46.08
2023-02-14T04:58:28.485Z,44.28
2023-02-14T05:01:29.929Z,43.13
2023-02-14T05:04:31.343Z,44.90
2023-02-14T05:07:32.730Z,47.33
2023-02-14T05:10:34.121Z,43.25
2023-02-14T05:13:35.487Z,49.17
2023-02-14T05:16:36.950Z,47.88
2023-02-14T05:19:38.370Z,44.58
2023-02-14T05:22:39.784Z,44.40
2023-02-14T05:25:41.434Z,51.60
2023-02-14T05:28:42.855Z,49.10
2023-02-14T05:31:44.343Z,49.33
2023-02-14T05:34:45.743Z,52.95
2023-02-14T05:37:47.151Z,45.83
2023-02-14T05:40:48.556Z,51.95
2023-02-14T05:43:50.108Z,47.90
2023-02-14T05:46:51.517Z,45.58
2023-02-14T05:49:52.908Z,50.58
2023-02-14T05:52:54.839Z,48.13
2023-02-14T05:55:56.256Z,46.08
2023-02-14T05:58:57.641Z,46.67
2023-02-14T06:01:59.084Z,50.75
2023-02-14T06:05:01.211Z,49.13
2023-02-14T06:08:02.633Z,46.85
2023-02-14T06:11:04.184Z,52.25
2023-02-14T06:14:05.571Z,51.25
2023-02-14T06:17:07.109Z,48.50
2023-02-14T06:20:09.349Z,48.15
2023-02-14T06:23:10.810Z,50.38
2023-02-14T06:26:12.208Z,51.35
2023-02-14T06:29:16.254Z,50.60
2023-02-14T06:32:17.780Z,44.75
2023-02-14T06:35:19.350Z,48.28
2023-02-14T06:38:20.761Z,50.67
2023-02-14T06:41:22.216Z,50.38
2023-02-14T06:44:23.652Z,48.13
2023-02-14T06:47:25.058Z,52.67
2023-02-14T06:50:26.478Z,52.97
2023-02-14T06:53:28.195Z,54.50
2023-02-14T06:56:29.599Z,47.15
2023-02-14T06:59:31.031Z,51.30
2023-02-14T07:02:32.526Z,50.00
2023-02-14T07:05:34.411Z,50.53
2023-02-14T07:08:35.845Z,45.55
2023-02-14T07:11:37.303Z,44.40
2023-02-14T07:14:38.754Z,44.55
2023-02-14T07:17:40.386Z,47.67
2023-02-14T07:20:41.835Z,49.03
2023-02-14T07:23:43.211Z,46.88
2023-02-14T07:26:44.635Z,46.13
2023-02-14T07:29:46.044Z,49.80
2023-02-14T07:32:47.527Z,45.35
2023-02-14T07:35:48.961Z,44.47
2023-02-14T07:38:50.367Z,46.88
2023-02-14T07:41:51.807Z,42.03
2023-02-14T07:44:54.411Z,44.00
2023-02-14T07:47:55.899Z,42.85
2023-02-14T07:50:57.471Z,44.67
2023-02-14T07:53:59.167Z,39.00
2023-02-14T07:57:00.743Z,43.80
2023-02-14T08:00:02.842Z,40.35
2023-02-14T08:03:13.872Z,44.38
2023-02-14T08:06:16.537Z,40.95
2023-02-14T08:09:17.999Z,41.87
2023-02-14T08:12:19.404Z,43.58
2023-02-14T08:15:20.885Z,40.92
2023-02-14T08:18:22.580Z,40.58
2023-02-14T08:21:24.008Z,37.90
2023-02-14T08:24:25.442Z,35.85
2023-02-14T08:27:26.912Z,40.45
2023-02-14T08:30:28.583Z,35.67
2023-02-14T08:33:30.151Z,37.67
2023-02-14T08:36:31.836Z,37.05
2023-02-14T08:39:33.257Z,38.47
2023-02-14T08:42:34.693Z,35.83
2023-02-14T08:45:36.194Z,37.30
2023-02-14T08:48:39.493Z,31.85
2023-02-14T08:54:42.355Z,32.45
2023-02-14T08:57:43.734Z,31.48
2023-02-14T09:00:45.584Z,30.63
2023-02-14T09:03:47.231Z,32.00
2023-02-14T09:06:48.786Z,32.00
2023-02-14T09:09:50.217Z,36.10
2023-02-14T09:12:52.188Z,33.55
2023-02-14T09:15:53.666Z,34.90
2023-02-14T09:18:55.189Z,34.00
2023-02-14T09:21:56.612Z,33.75
2023-02-14T09:24:58.046Z,31.50
2023-02-14T09:27:59.545Z,29.05
2023-02-14T09:31:16.413Z,33.58
2023-02-14T09:34:17.943Z,29.23
2023-02-14T09:37:19.389Z,32.25
2023-02-14T09:40:21.114Z,31.63
2023-02-14T09:43:32.452Z,30.92
2023-02-14T09:46:50.602Z,29.77
2023-02-14T09:49:54.205Z,27.17
2023-02-14T09:53:00.439Z,29.30
2023-02-14T09:56:08.002Z,29.23
2023-02-14T09:59:19.210Z,28.85
2023-02-14T10:02:45.216Z,30.27
2023-02-14T10:05:58.006Z,30.77
2023-02-14T10:09:06.559Z,28.87
2023-02-14T10:12:19.020Z,30.13
2023-02-14T10:15:28.012Z,29.80
2023-02-14T10:19:17.584Z,29.02
2023-02-14T10:22:23.637Z,26.88
2023-02-14T10:25:30.884Z,27.20
2023-02-14T10:28:40.020Z,28.58
2023-02-14T10:31:48.135Z,27.98
2023-02-14T10:34:51.303Z,28.00
2023-02-14T10:38:10.923Z,30.67
2023-02-14T10:42:06.776Z,26.73
2023-02-14T10:45:16.565Z,29.42
2023-02-14T10:48:24.790Z,26.25
2023-02-14T10:52:01.491Z,28.05
2023-02-14T10:55:30.019Z,28.15
2023-02-14T10:58:38.588Z,24.45
2023-02-14T11:01:40.126Z,27.33
2023-02-14T11:04:43.789Z,30.48
2023-02-14T11:07:45.205Z,27.45
2023-02-14T11:10:46.642Z,24.65
2023-02-14T11:13:48.583Z,26.92
2023-02-14T11:16:51.168Z,27.88
2023-02-14T11:20:23.377Z,26.33
2023-02-14T11:23:24.807Z,31.52
2023-02-14T11:26:31.200Z,26.15
2023-02-14T11:29:46.090Z,25.50
2023-02-14T11:32:50.605Z,28.25
2023-02-14T11:35:53.119Z,26.13
2023-02-14T11:39:24.484Z,28.20
2023-02-14T11:43:02.262Z,26.92
2023-02-14T11:46:16.199Z,29.60
2023-02-14T11:49:35.312Z,26.17
2023-02-14T11:52:52.260Z,28.50
2023-02-14T11:55:56.312Z,28.52
2023-02-14T11:59:00.652Z,29.23
2023-02-14T12:02:29.861Z,27.13
2023-02-14T12:05:45.196Z,26.27
2023-02-14T12:08:46.671Z,29.77
2023-02-14T12:12:02.488Z,28.83
2023-02-14T12:15:25.444Z,28.60
2023-02-14T12:18:29.791Z,31.00
2023-02-14T12:21:59.475Z,28.80
2023-02-14T12:25:20.048Z,29.58
2023-02-14T12:29:07.074Z,27.63
2023-02-14T12:32:25.915Z,28.08
2023-02-14T12:35:42.596Z,29.55
2023-02-14T12:39:03.134Z,29.50
2023-02-14T12:42:22.873Z,30.55
2023-02-14T12:45:37.802Z,31.95
2023-02-14T12:48:51.298Z,27.17
2023-02-14T12:52:26.397Z,27.85
2023-02-14T12:55:45.890Z,26.30
2023-02-14T12:59:10.437Z,30.90
2023-02-14T13:03:09.911Z,29.35
2023-02-14T13:06:27.735Z,27.42
2023-02-14T13:09:51.822Z,28.33
2023-02-14T13:13:05.364Z,25.83
2023-02-14T13:16:15.589Z,29.63
2023-02-14T13:19:42.955Z,28.48
2023-02-14T13:22:45.967Z,27.20
2023-02-14T13:25:54.274Z,27.58
2023-02-14T13:28:57.965Z,26.23
2023-02-14T13:32:02.801Z,26.67
2023-02-14T13:35:05.793Z,25.67
2023-02-14T13:38:15.633Z,24.25
2023-02-14T13:41:19.457Z,25.58
2023-02-14T13:44:44.360Z,25.33
2023-02-14T13:47:45.839Z,24.35
2023-02-14T13:50:57.416Z,28.45
2023-02-14T13:53:58.986Z,25.30
2023-02-14T13:57:21.237Z,23.95
2023-02-14T14:00:36.493Z,27.50
2023-02-14T14:03:37.962Z,22.88
2023-02-14T14:07:25.540Z,24.00
2023-02-14T14:10:51.275Z,24.75
2023-02-14T14:14:23.751Z,24.20
2023-02-14T14:17:25.266Z,28.05
2023-02-14T14:20:26.662Z,22.48
2023-02-14T14:23:36.369Z,26.40
2023-02-14T14:26:42.023Z,23.17
2023-02-14T14:29:50.496Z,24.33
2023-02-14T14:32:52.074Z,24.30
2023-02-14T14:35:56.806Z,26.58
2023-02-14T14:38:58.738Z,24.27
2023-02-14T14:42:09.476Z,23.80
2023-02-14T14:45:28.777Z,24.77
2023-02-14T14:48:48.404Z,25.40
2023-02-14T14:51:49.908Z,24.85
2023-02-14T14:54:51.872Z,26.17
2023-02-14T14:57:58.880Z,23.90
2023-02-14T15:01:02.216Z,26.13
2023-02-14T15:04:24.583Z,23.88
2023-02-14T15:07:31.949Z,20.80
2023-02-14T15:10:33.443Z,23.50
2023-02-14T15:13:45.987Z,23.08
2023-02-14T15:16:53.669Z,24.92
2023-02-14T15:19:59.025Z,24.15
2023-02-14T15:23:01.493Z,24.63
2023-02-14T15:26:03.256Z,22.73
2023-02-14T15:29:06.842Z,23.92
2023-02-14T15:32:10.690Z,22.52
2023-02-14T15:35:14.598Z,25.05
2023-02-14T15:38:17.042Z,23.73
2023-02-14T15:41:19.100Z,24.35
2023-02-14T15:44:22.909Z,23.98
2023-02-14T15:47:24.507Z,23.58
2023-02-14T15:50:35.367Z,24.75
2023-02-14T15:53:48.601Z,23.15
2023-02-14T15:56:52.329Z,22.42
2023-02-14T15:59:54.019Z,22.25
2023-02-14T16:03:03.793Z,26.23
2023-02-14T16:06:05.405Z,25.25
2023-02-14T16:09:24.736Z,24.38
2023-02-14T16:12:36.907Z,27.27
2023-02-14T16:15:39.899Z,24.38
2023-02-14T16:18:44.340Z,29.08
2023-02-14T16:21:55.776Z,26.58
2023-02-14T16:24:58.518Z,27.95
2023-02-14T16:27:59.974Z,27.98
2023-02-14T16:31:02.948Z,26.40
2023-02-14T16:34:04.701Z,26.80
2023-02-14T16:37:17.009Z,24.77
2023-02-14T16:40:22.066Z,27.75
2023-02-14T16:43:23.491Z,24.83
2023-02-14T16:46:29.265Z,29.30
2023-02-14T16:49:30.823Z,26.52
2023-02-14T16:52:32.320Z,26.67
2023-02-14T16:55:33.843Z,27.52
2023-02-14T16:58:36.508Z,27.73
2023-02-14T17:01:38.226Z,28.08
2023-02-14T17:04:39.692Z,28.05
2023-02-14T17:07:43.093Z,28.13
2023-02-14T17:13:48.810Z,29.42
2023-02-14T17:16:51.426Z,26.60
2023-02-14T17:19:53.216Z,29.13
2023-02-14T17:22:54.638Z,29.10
2023-02-14T17:25:56.112Z,30.98
2023-02-14T17:28:57.614Z,29.50
2023-02-14T17:31:59.201Z,27.60
2023-02-14T17:35:00.750Z,30.33
2023-02-14T17:38:02.268Z,27.23
2023-02-14T17:41:21.839Z,28.17
2023-02-14T17:44:23.621Z,26.90
2023-02-14T17:47:25.280Z,28.05
2023-02-14T17:50:26.683Z,29.52
2023-02-14T17:53:28.176Z,30.35
2023-02-14T17:56:29.698Z,30.20
2023-02-14T17:59:32.103Z,32.75
2023-02-14T18:02:33.536Z,29.15
2023-02-14T18:05:38.180Z,33.42
2023-02-14T18:08:45.494Z,32.20
2023-02-14T18:11:47.875Z,33.47
2023-02-14T18:14:49.290Z,30.17
2023-02-14T18:17:50.764Z,35.05
2023-02-14T18:20:56.824Z,31.33
2023-02-14T18:23:58.279Z,30.38
2023-02-14T18:26:59.675Z,31.48
2023-02-14T18:30:01.198Z,35.65
2023-02-14T18:33:02.657Z,33.75
2023-02-14T18:36:05.620Z,32.78
2023-02-14T18:39:08.490Z,35.67
2023-02-14T18:42:09.926Z,32.63
2023-02-14T18:45:11.475Z,36.05
2023-02-14T18:48:12.941Z,34.13
2023-02-14T18:51:17.586Z,33.33
2023-02-14T18:54:19.007Z,31.42
2023-02-14T18:57:20.454Z,34.03
2023-02-14T19:00:22.658Z,32.92
2023-02-14T19:03:24.116Z,31.05
2023-02-14T19:06:26.671Z,35.42
2023-02-14T19:09:28.102Z,33.63
2023-02-14T19:12:33.907Z,34.83
2023-02-14T19:15:35.380Z,34.95
2023-02-14T19:18:36.986Z,37.72
2023-02-14T19:21:38.545Z,32.97
2023-02-14T19:24:40.037Z,34.50
2023-02-14T19:27:41.514Z,34.53
2023-02-14T19:30:43.056Z,32.00
2023-02-14T19:33:46.572Z,34.47
2023-02-14T19:39:50.627Z,35.80
2023-02-14T19:42:52.166Z,35.53
2023-02-14T19:45:53.680Z,33.80
2023-02-14T19:48:56.604Z,35.83
2023-02-14T19:51:58.207Z,39.15
2023-02-14T19:54:59.713Z,37.55
2023-02-14T19:58:01.214Z,33.75
2023-02-14T20:01:03.219Z,35.42
2023-02-14T20:04:06.912Z,38.50
2023-02-14T20:10:11.506Z,35.88
2023-02-14T20:13:13.039Z,34.75
2023-02-14T20:16:14.553Z,38.65
2023-02-14T20:19:18.922Z,37.13
2023-02-14T20:22:20.418Z,37.90
2023-02-14T20:25:21.932Z,41.20
2023-02-14T20:28:24.066Z,41.10
2023-02-14T20:31:25.840Z,42.58
2023-02-14T20:34:27.530Z,54.20
2023-02-14T20:37:29.369Z,38.67
2023-02-14T20:40:30.841Z,39.58
2023-02-14T20:43:32.359Z,41.97
2023-02-14T20:46:34.619Z,41.22
2023-02-14T20:49:36.173Z,41.55
2023-02-14T20:52:37.597Z,42.85
2023-02-14T20:55:40.048Z,43.22
2023-02-14T20:58:42.297Z,44.05
2023-02-14T21:01:43.839Z,47.35
2023-02-14T21:04:45.305Z,43.58
2023-02-14T21:07:46.918Z,39.63
2023-02-14T21:10:48.353Z,40.05
2023-02-14T21:13:54.029Z,41.13
2023-02-14T21:16:55.823Z,43.80
2023-02-14T21:19:57.308Z,41.35
2023-02-14T21:22:58.783Z,45.60
2023-02-14T21:26:00.286Z,43.20
2023-02-14T21:29:02.042Z,45.15
2023-02-14T21:32:03.994Z,44.83
2023-02-14T21:35:05.988Z,43.38
2023-02-14T21:38:07.460Z,45.08
2023-02-14T21:41:11.621Z,42.67
2023-02-14T21:44:13.150Z,41.38
2023-02-14T21:47:14.646Z,47.10
2023-02-14T21:50:16.283Z,43.90
2023-02-14T21:53:17.787Z,49.60
2023-02-14T21:56:20.285Z,41.08
2023-02-14T21:59:21.916Z,41.13
2023-02-14T22:02:23.428Z,44.28
2023-02-14T22:05:25.328Z,43.95
2023-02-14T22:08:26.790Z,44.05
2023-02-14T22:11:29.693Z,44.33
2023-02-14T22:14:31.169Z,44.60
2023-02-14T22:17:33.224Z,45.55
2023-02-14T22:20:34.697Z,47.22
2023-02-14T22:23:36.725Z,40.05
2023-02-14T22:26:38.562Z,40.55
2023-02-14T22:29:40.044Z,44.53
2023-02-14T22:32:42.326Z,44.17
2023-02-14T22:35:43.799Z,44.75
2023-02-14T22:38:45.283Z,45.10
2023-02-14T22:41:46.765Z,44.05
2023-02-14T22:44:48.281Z,44.40
2023-02-14T22:47:49.772Z,45.17
2023-02-14T22:50:51.233Z,47.78
2023-02-14T22:53:54.888Z,47.25
2023-02-14T22:56:56.324Z,46.40
2023-02-14T22:59:57.833Z,49.80
2023-02-14T23:02:59.348Z,48.00
2023-02-14T23:06:01.135Z,51.17
2023-02-14T23:09:04.723Z,50.50
2023-02-14T23:15:09.826Z,53.55
2023-02-14T23:18:14.341Z,55.95
2023-02-14T23:21:15.800Z,59.97
2023-02-14T23:24:17.248Z,55.83
2023-02-14T23:27:22.247Z,54.33
2023-02-14T23:30:23.793Z,57.55
2023-02-14T23:33:25.283Z,60.47
2023-02-14T23:36:26.778Z,64.50
2023-02-14T23:39:28.459Z,64.35
2023-02-14T23:42:29.928Z,59.25
2023-02-14T23:45:31.456Z,62.20
2023-02-14T23:48:32.895Z,62.05
2023-02-14T23:51:35.328Z,66.32
2023-02-14T23:54:37.836Z,60.78
2023-02-14T23:57:39.861Z,65.47
